Latest Weather Observations for Dunalley

IDT60801

Issued at 6:51 am EDT Sunday 26 January 2020 (issued every 10 minutes, with the page automatically refreshed every 10 minutes)

About weather observations | Map of weather stations | Latest weather observations for TAS | Other Formats
Station Details ID: 094254 Name: DUNALLEY (STROUD POINT) Lat: -42.90 Lon: 147.79 Height: 12.43 m
Data from the previous 72 hours. | See also: Recent months at Dunalley
Date/Time
EDT
Temp
°C
App
Temp
°C
Dew
Point
°C
Rel
Hum
%
Delta-T
°C
Wind Press
QNH
hPa
Press
MSL
hPa
Rain since
9am
mm
Dir  Spd
km/h
Gust
km/h
Spd
kts
Gust
kts
26/06:30am 18.9 17.8 13.1 69 3.3 NNW 11 17 6 9 1006.1 1006.1 0.0
26/06:00am 18.2 17.3 13.7 75 2.6 NNW 11 15 6 8 1005.9 1005.9 0.0
26/05:30am 16.8 16.6 13.1 79 2.1 N 6 11 3 6 1005.7 1005.7 0.0
26/05:00am 16.5 16.2 12.7 78 2.1 N 6 7 3 4 1005.6 1005.6 0.0
26/04:30am 17.1 17.3 13.0 77 2.3 N 4 6 2 3 1005.7 1005.7 0.0
26/04:00am 17.1 17.0 13.2 78 2.2 N 6 7 3 4 1005.8 1005.8 0.0
26/03:30am 17.4 17.2 12.9 75 2.5 N 6 9 3 5 1005.9 1005.9 0.0
26/03:00am 18.0 17.3 13.1 73 2.8 N 9 11 5 6 1006.1 1006.1 0.0
26/02:30am 18.4 16.6 13.3 72 2.9 N 15 20 8 11 1006.5 1006.5 0.0
26/02:00am 18.2 16.8 13.3 73 2.8 N 13 17 7 9 1006.8 1006.8 0.0
26/01:30am 18.0 16.4 12.9 72 2.9 N 13 15 7 8 1007.0 1007.0 0.0
26/01:00am 18.6 16.0 13.2 71 3.1 N 19 26 10 14 1007.1 1007.1 0.0
26/12:30am 18.8 16.0 13.2 70 3.2 N 20 26 11 14 1007.4 1007.4 0.0
26/12:00am 19.2 15.7 13.4 69 3.3 N 24 32 13 17 1007.3 1007.3 0.0
 
Date/Time
EDT
Temp
°C
App
Temp
°C
Dew
Point
°C
Rel
Hum
%
Delta-T
°C
Wind Press
QNH
hPa
Press
MSL
hPa
Rain since
9am
mm
Dir  Spd
km/h
Gust
km/h
Spd
kts
Gust
kts
25/11:30pm 19.4 17.6 13.3 68 3.5 N 15 22 8 12 1007.5 1007.5 0.0
25/11:00pm 20.2 18.9 13.6 66 3.8 NNW 13 20 7 11 1008.1 1008.1 0.0
25/10:30pm 20.2 19.3 13.6 66 3.8 NNW 11 19 6 10 1008.2 1008.2 0.0
25/10:00pm 20.4 19.8 13.6 65 3.9 NNW 9 19 5 10 1008.0 1008.0 0.0
25/09:30pm 21.1 21.1 13.5 62 4.4 NW 6 11 3 6 1007.7 1007.7 0.0
25/09:00pm 20.6 21.3 13.3 63 4.2 NNE 2 6 1 3 1007.4 1007.4 0.0
25/08:30pm 20.5 20.1 13.0 62 4.3 NE 7 11 4 6 1007.1 1007.1 0.0
25/08:00pm 20.9 21.1 13.1 61 4.5 NNE 4 9 2 5 1007.0 1007.0 0.0
25/07:30pm 22.7 21.2 12.0 50 6.0 WNW 11 19 6 10 1006.7 1006.7 0.0
25/07:00pm 23.8 20.1 11.5 46 6.9 WNW 22 28 12 15 1006.3 1006.3 0.0
25/06:30pm 23.5 21.1 12.8 51 6.1 W 17 26 9 14 1006.6 1006.6 0.0
25/06:00pm 23.9 19.1 11.6 46 7.0 WNW 28 35 15 19 1006.7 1006.7 0.0
25/05:30pm 22.9 19.5 12.5 52 5.9 W 22 32 12 17 1006.8 1006.8 0.0
25/05:00pm 23.4 19.5 12.1 49 6.4 WSW 24 32 13 17 1006.8 1006.8 0.0
25/04:30pm 24.9 20.1 11.8 44 7.4 W 28 35 15 19 1006.9 1006.9 0.0
25/04:00pm 24.8 21.4 12.4 46 7.1 W 22 35 12 19 1007.1 1007.1 0.0
25/03:30pm 24.8 21.5 11.0 42 7.7 W 19 33 10 18 1007.2 1007.2 0.0
25/03:00pm 23.6 20.2 11.3 46 6.9 W 20 30 11 16 1007.4 1007.4 0.0
25/02:30pm 23.2 18.7 11.3 47 6.7 W 26 35 14 19 1007.5 1007.5 0.0
25/02:00pm 23.6 18.6 9.6 41 7.6 WNW 26 39 14 21 1007.6 1007.6 0.0
25/01:30pm 24.1 19.3 10.4 42 7.6 W 26 37 14 20 1007.4 1007.4 0.0
25/01:00pm 23.8 18.2 8.6 38 8.1 WNW 28 41 15 22 1007.8 1007.8 0.0
25/12:30pm 23.7 18.1 8.9 39 7.9 W 28 37 15 20 1007.9 1007.9 0.0
25/12:00pm 21.8 16.9 8.3 42 7.1 W 24 35 13 19 1008.1 1008.1 0.0
25/11:30am 21.9 16.7 8.8 43 7.0 WNW 26 41 14 22 1008.2 1008.2 0.0
25/11:00am 20.5 13.8 7.5 43 6.7 WNW 32 43 17 23 1008.2 1008.2 0.0
25/10:45am 20.0 13.7 7.4 44 6.4 WNW 30 48 16 26 1008.3 1008.3 0.0
25/10:30am 19.3 11.9 6.8 44 6.3 WNW 35 46 19 25 1008.2 1008.2 0.0
25/10:00am 18.8 10.2 6.6 45 6.1 WNW 41 52 22 28 1008.1 1008.1 0.0
25/09:42am 18.7 11.6 6.5 45 6.1 WNW 33 56 18 30 1008.2 1008.2 0.0
25/09:30am 18.5 11.7 7.0 47 5.8 WNW 32 44 17 24 1008.5 1008.5 0.0
25/09:08am 17.8 11.7 6.7 48 5.5 NW 28 46 15 25 1008.7 1008.7 0.0
25/09:00am 17.7 11.6 6.6 48 5.5 WNW 28 44 15 24 1008.6 1008.6 0.0
25/08:30am 17.4 13.0 6.6 49 5.3 WNW 19 30 10 16 1008.5 1008.5 0.0
25/08:00am 17.2 12.6 6.4 49 5.3 WNW 20 28 11 15 1008.3 1008.3 0.0
25/07:30am 17.0 13.0 6.5 50 5.2 NW 17 24 9 13 1008.0 1008.0 0.0
25/07:00am 16.6 12.9 6.4 51 5.0 NW 15 24 8 13 1007.5 1007.5 0.0
25/06:30am 16.4 13.0 6.0 50 5.0 NW 13 19 7 10 1007.2 1007.2 0.0
25/06:00am 16.0 12.7 6.2 52 4.8 NW 13 20 7 11 1007.1 1007.1 0.0
25/05:30am 15.9 12.6 6.6 54 4.5 NW 13 20 7 11 1007.1 1007.1 0.0
25/05:00am 15.5 12.2 6.5 55 4.4 NNW 13 22 7 12 1006.9 1006.9 0.0
25/04:30am 15.7 13.7 7.0 56 4.3 N 7 15 4 8 1006.7 1006.7 0.0
25/04:00am 16.0 12.7 6.4 53 4.7 NW 13 17 7 9 1006.7 1006.7 0.0
25/03:30am 15.9 12.6 6.3 53 4.7 NW 13 20 7 11 1006.8 1006.8 0.0
25/03:00am 16.3 13.0 6.4 52 4.9 NW 13 20 7 11 1006.5 1006.5 0.0
25/02:30am 16.6 14.1 6.4 51 5.0 NNW 9 15 5 8 1006.5 1006.5 0.0
25/02:00am 16.8 13.2 6.6 51 5.0 NW 15 22 8 12 1006.5 1006.5 0.0
25/01:30am 17.1 13.4 6.3 49 5.3 NW 15 26 8 14 1006.4 1006.4 0.0
25/01:00am 17.0 12.7 6.8 51 5.1 NW 19 26 10 14 1006.2 1006.2 0.0
25/12:30am 16.9 14.8 8.3 57 4.4 WNW 9 13 5 7 1006.5 1006.5 0.0
25/12:00am 17.8 13.6 8.4 54 4.8 WNW 20 32 11 17 1006.2 1006.2 0.0
 
Date/Time
EDT
Temp
°C
App
Temp
°C
Dew
Point
°C
Rel
Hum
%
Delta-T
°C
Wind Press
QNH
hPa
Press
MSL
hPa
Rain since
9am
mm
Dir  Spd
km/h
Gust
km/h
Spd
kts
Gust
kts
24/11:30pm 18.1 15.4 8.9 55 4.8 NW 13 20 7 11 1006.2 1006.2 0.0
24/11:00pm 17.1 15.1 8.8 58 4.3 WNW 9 13 5 7 1006.0 1006.0 0.0
24/10:30pm 18.4 17.0 8.7 53 5.0 WNW 6 11 3 6 1006.2 1006.2 0.0
24/10:00pm 18.7 13.5 8.7 52 5.2 WNW 26 35 14 19 1005.7 1005.7 0.0
24/09:30pm 18.6 15.6 7.7 49 5.6 NW 13 20 7 11 1005.5 1005.5 0.0
24/09:00pm 19.1 14.7 7.2 46 6.0 WNW 20 28 11 15 1005.1 1005.1 0.0
24/08:30pm 19.4 15.0 7.2 45 6.2 NW 20 28 11 15 1004.9 1004.9 0.0
24/08:00pm 19.9 16.0 7.0 43 6.6 W 17 26 9 14 1004.7 1004.7 0.0
24/07:30pm 19.9 16.4 7.3 44 6.4 W 15 26 8 14 1004.7 1004.7 0.0
24/07:00pm 19.8 15.4 7.2 44 6.4 WNW 20 35 11 19 1004.1 1004.1 0.0
24/06:30pm 20.3 14.1 7.7 44 6.5 W 30 37 16 20 1003.6 1003.6 0.0
24/06:00pm 20.3 15.0 8.3 46 6.3 W 26 33 14 18 1003.6 1003.6 0.0
24/05:30pm 20.2 15.2 7.9 45 6.4 W 24 32 13 17 1003.4 1003.4 0.0
24/05:00pm 20.9 15.5 6.4 39 7.3 W 24 39 13 21 1003.2 1003.2 0.0
24/04:30pm 20.4 17.0 7.7 44 6.5 W 15 19 8 10 1002.9 1002.9 0.0
24/04:00pm 21.6 16.4 7.1 39 7.5 W 24 35 13 19 1002.7 1002.7 0.0
24/03:30pm 21.1 14.1 7.0 40 7.2 W 33 54 18 29 1002.2 1002.2 0.0
24/03:25pm 21.1 14.0 6.2 38 7.5 W 33 54 18 29 1002.1 1002.1 0.0
24/03:00pm 19.9 10.9 6.3 41 6.8 W 43 52 23 28 1002.0 1002.0 0.0
24/02:39pm 20.6 13.6 6.2 39 7.2 W 32 52 17 28 1002.2 1002.2 0.0
24/02:30pm 20.1 13.5 7.8 45 6.3 W 32 44 17 24 1002.3 1002.3 0.0
24/02:00pm 18.2 11.2 9.8 58 4.5 W 37 44 20 24 1002.0 1002.0 0.0
24/01:30pm 18.6 10.8 6.8 46 5.9 WNW 37 50 20 27 1001.6 1001.6 0.0
24/01:15pm 18.1 12.2 7.5 50 5.4 WNW 28 46 15 25 1001.5 1001.5 0.0
24/01:00pm 18.8 12.2 7.9 49 5.6 WNW 32 43 17 23 1001.4 1001.4 0.0
24/12:30pm 18.1 11.8 7.2 49 5.5 W 30 39 16 21 1001.3 1001.3 0.0
24/12:00pm 18.0 11.2 7.1 49 5.5 W 32 43 17 23 1000.9 1000.9 0.0
24/11:30am 17.0 11.3 6.5 50 5.2 WNW 26 39 14 21 1001.0 1001.0 0.0
24/11:00am 18.0 12.9 7.7 51 5.3 WNW 24 33 13 18 1000.9 1000.9 0.0
24/10:30am 16.3 10.2 6.7 53 4.7 NW 28 43 15 23 1000.8 1000.8 0.0
24/10:00am 16.8 10.3 6.6 51 5.1 WNW 30 48 16 26 1000.3 1000.3 0.0
24/09:30am 16.7 9.6 6.5 51 5.0 WNW 33 52 18 28 999.6 999.6 0.0
24/09:00am 16.2 9.8 6.9 54 4.6 WNW 30 46 16 25 999.3 999.3 9.6
24/08:30am 15.4 9.6 6.4 55 4.4 NW 26 37 14 20 999.1 999.1 9.6
24/08:00am 15.1 9.6 5.9 54 4.4 WNW 24 35 13 19 998.7 998.7 9.6
24/07:30am 14.9 10.8 6.0 55 4.3 NW 17 26 9 14 998.1 998.1 9.6
24/07:00am 14.0 8.8 5.4 56 4.1 NW 22 33 12 18 997.7 997.7 9.6
24/06:30am 13.5 9.1 4.6 55 4.1 NW 17 33 9 18 997.4 997.4 9.6
24/06:00am 12.3 9.7 4.3 58 3.7 NNW 7 13 4 7 997.4 997.4 9.6
24/05:30am 13.0 9.2 3.9 54 4.1 NW 13 28 7 15 997.1 997.1 9.6
24/05:00am 12.6 8.8 3.8 55 4.0 NW 13 20 7 11 996.9 996.9 9.6
24/04:30am 12.6 7.5 3.3 53 4.1 NW 19 39 10 21 996.5 996.5 9.6
24/04:00am 12.7 6.0 3.6 54 4.1 WNW 28 46 15 25 996.6 996.6 9.6
24/03:55am 12.6 5.9 3.6 54 4.0 WNW 28 46 15 25 996.6 996.6 9.6
24/03:30am 12.5 6.6 3.7 55 3.9 WNW 24 39 13 21 996.4 996.4 9.6
24/03:00am 12.2 7.0 3.7 56 3.8 WNW 20 30 11 16 996.8 996.8 9.6
24/02:30am 12.2 5.2 3.9 57 3.7 WNW 30 43 16 23 996.6 996.6 9.6
24/02:00am 12.3 4.4 4.3 58 3.7 WNW 35 54 19 29 996.2 996.2 9.6
24/01:30am 12.6 5.3 4.3 57 3.8 WNW 32 44 17 24 996.5 996.5 9.6
24/01:00am 12.7 5.4 4.7 58 3.7 WNW 32 46 17 25 996.4 996.4 9.6
24/12:30am 12.8 5.7 5.5 61 3.4 WNW 32 46 17 25 996.0 996.0 9.6
24/12:00am 13.4 5.8 5.8 60 3.6 WNW 35 52 19 28 995.6 995.6 9.6
 
Date/Time
EDT
Temp
°C
App
Temp
°C
Dew
Point
°C
Rel
Hum
%
Delta-T
°C
Wind Press
QNH
hPa
Press
MSL
hPa
Rain since
9am
mm
Dir  Spd
km/h
Gust
km/h
Spd
kts
Gust
kts
23/11:30pm 13.5 6.4 5.7 59 3.7 WNW 32 48 17 26 995.1 995.1 9.6
23/11:00pm 13.6 6.9 5.5 58 3.8 WNW 30 52 16 28 994.6 994.6 9.6
23/10:53pm 13.5 6.4 5.7 59 3.7 WNW 32 52 17 28 994.5 994.5 9.6
23/10:30pm 14.0 5.6 5.4 56 4.0 WNW 39 54 21 29 993.9 993.9 9.6
23/10:00pm 14.4 7.3 5.7 56 4.2 WNW 32 52 17 28 993.1 993.1 9.6
23/09:30pm 14.5 6.1 5.8 56 4.1 WNW 39 70 21 38 992.3 992.3 9.6
23/09:01pm 14.9 5.6 5.7 54 4.4 WNW 44 65 24 35 991.5 991.5 9.6
23/09:00pm 15.0 5.6 5.5 53 4.6 WNW 44 59 24 32 991.4 991.4 9.6
23/08:30pm 15.7 6.5 6.4 54 4.5 WNW 44 69 24 37 991.2 991.2 9.6
23/08:24pm 16.0 8.1 6.2 52 4.8 WNW 37 69 20 37 990.9 990.9 9.6
23/08:00pm 16.6 10.3 7.5 55 4.6 W 30 48 16 26 990.3 990.3 9.6
23/07:30pm 16.0 11.8 9.9 67 3.2 W 22 41 12 22 989.8 989.8 9.6
23/07:00pm 15.7 13.3 10.0 69 3.0 NNW 13 19 7 10 989.2 989.2 9.6
23/06:30pm 14.7 11.9 9.9 73 2.5 NNW 15 22 8 12 988.8 988.8 9.6
23/06:00pm 14.3 10.0 9.3 72 2.6 NW 22 35 12 19 989.0 989.0 9.4
23/05:30pm 16.6 10.6 10.7 68 3.1 WNW 33 44 18 24 988.3 988.3 7.4
23/05:00pm 19.3 15.4 9.5 53 5.2 N 20 35 11 19 987.4 987.4 7.4
23/04:30pm 20.8 18.2 13.3 62 4.3 NNW 19 33 10 18 987.7 987.7 7.4
23/04:00pm 17.1 15.9 12.8 76 2.4 ESE 11 17 6 9 988.1 988.1 7.4
23/03:30pm 16.7 16.6 13.2 80 2.0 NNE 6 9 3 5 988.5 988.5 7.4
23/03:00pm 15.1 13.2 11.9 81 1.7 WSW 13 33 7 18 989.7 989.7 6.8
23/02:30pm 15.9 12.2 11.5 75 2.4 NE 22 28 12 15 989.3 989.3 2.2
23/02:00pm 17.0 13.7 11.5 70 3.0 ENE 20 26 11 14 989.4 989.4 0.8
23/01:30pm 18.3 16.6 12.3 68 3.3 NNE 13 19 7 10 990.0 990.0 0.8
23/01:00pm 17.2 14.3 12.3 73 2.7 NNE 19 28 10 15 990.4 990.4 0.8
23/12:30pm 16.1 13.5 12.1 77 2.2 NNE 17 22 9 12 990.8 990.8 0.8
23/12:00pm 15.5 12.7 12.6 83 1.6 NE 19 24 10 13 991.1 991.1 0.8
23/11:30am 14.8 13.4 12.3 85 1.4 NE 11 15 6 8 991.1 991.1 0.8
23/11:00am 14.2 12.3 11.9 86 1.3 NE 13 15 7 8 991.2 991.2 0.8
23/10:30am 14.3 13.5 11.8 85 1.3 N 7 11 4 6 991.1 991.1 0.6
23/10:00am 14.6 14.1 12.1 85 1.4 NNW 6 9 3 5 991.4 991.4 0.6
23/09:30am 14.1 14.2 11.4 84 1.4 NNW 2 9 1 5 992.1 992.1 0.4
23/09:00am 14.3 13.7 11.6 84 1.5 NNW 6 9 3 5 992.7 992.7 12.4
23/08:30am 14.6 13.2 12.1 85 1.4 NNW 11 13 6 7 992.5 992.5 12.0
23/08:00am 14.6 12.2 12.6 88 1.1 N 17 22 9 12 992.3 992.3 12.0
23/07:30am 14.7 11.8 12.9 89 1.0 NNE 20 26 11 14 992.2 992.2 12.0
23/07:00am 14.9 10.7 13.4 91 0.8 NNE 28 39 15 21 993.0 993.0 11.4

Other formats

Comma delimited format used in spreadsheet applications
http://www.bom.gov.au/fwo/IDT60801/IDT60801.94951.axf

JavaScript Object Notation format (JSON) in row-major order
http://www.bom.gov.au/fwo/IDT60801/IDT60801.94951.json

Data quality

Most of these data are generated automatically and are frequently updated. Quality checks on data are not normally performed. It is possible for incorrect values to appear. Refer to information at About Latest Weather Observations and please check the disclaimer before using these data.